Time;durP1;ratioP1;P1;durP2;ratioP2;P2;SDS_P1;SDS_P2;PMS_P1;PMS_P2;Temp;Humidity;BMP_temperature;BMP_pressure;BME280_temperature;BME280_humidity;BME280_pressure;Samples;Min_cycle;Max_cycle;Signal;HPM_P1;HPM_P2
2022/06/20 00:00:58;;;;;;;1133.00;999.90;;;21.30;76.50;;;;;;5065175;28;20041;-82
2022/06/20 00:03:31;;;;;;;1141.28;999.90;;;21.20;78.90;;;;;;5057476;28;20106;-84
2022/06/20 00:05:57;;;;;;;1146.10;999.90;;;21.20;78.00;;;;;;5059369;28;20033;-82
2022/06/20 00:08:23;;;;;;;1158.75;999.90;;;21.20;76.20;;;;;;5054097;28;20055;-83
2022/06/20 00:10:50;;;;;;;1148.78;999.90;;;21.20;77.00;;;;;;5056832;28;20037;-82
2022/06/20 00:13:31;;;;;;;1165.45;999.90;;;21.20;75.80;;;;;;5055209;28;20043;-83
2022/06/20 00:15:57;;;;;;;1149.53;999.90;;;21.40;75.30;;;;;;5056019;28;20012;-82
2022/06/20 00:18:23;;;;;;;1150.32;999.90;;;21.50;75.00;;;;;;5053962;28;20021;-83
2022/06/20 00:20:49;;;;;;;1145.90;999.90;;;21.50;75.30;;;;;;5065918;28;20090;-82
2022/06/20 00:23:14;;;;;;;1146.72;999.90;;;21.50;75.30;;;;;;5048037;28;20017;-84
2022/06/20 00:25:41;;;;;;;1165.80;999.90;;;21.50;76.50;;;;;;5056418;28;20507;-83
2022/06/20 00:28:07;;;;;;;1146.18;999.90;;;21.40;78.00;;;;;;5061054;28;20032;-83
2022/06/20 00:30:34;;;;;;;1146.90;999.90;;;21.40;74.80;;;;;;5066369;28;20377;-83
2022/06/20 00:33:00;;;;;;;1153.50;999.90;;;21.40;75.30;;;;;;5063741;28;20615;-83
2022/06/20 00:35:26;;;;;;;1135.82;999.90;;;21.40;75.80;;;;;;5061142;28;20103;-84
2022/06/20 00:37:55;;;;;;;1139.30;999.90;;;21.30;74.00;;;;;;5045304;28;20029;-83
2022/06/20 00:40:43;;;;;;;1163.07;999.90;;;21.30;76.70;;;;;;5055642;28;20024;-82
2022/06/20 00:43:13;;;;;;;1163.40;999.90;;;21.20;77.10;;;;;;5060365;28;20519;-83
2022/06/20 00:45:44;;;;;;;1156.90;999.90;;;21.10;77.30;;;;;;5059744;28;20737;-82
2022/06/20 00:48:44;;;;;;;1161.50;999.90;;;21.10;78.40;;;;;;5056313;28;20036;-82
2022/06/20 00:51:30;;;;;;;1170.55;999.90;;;21.00;78.50;;;;;;5038793;28;20041;-83
2022/06/20 00:54:16;;;;;;;1170.20;999.90;;;21.00;77.50;;;;;;5067807;28;20040;-83
2022/06/20 00:56:50;;;;;;;1151.22;999.90;;;21.00;77.40;;;;;;5045027;28;20051;-82
2022/06/20 00:59:21;;;;;;;1162.65;999.90;;;21.10;77.00;;;;;;5061992;28;20578;-82
2022/06/20 01:01:48;;;;;;;1168.95;999.90;;;21.10;75.60;;;;;;5060822;28;20098;-85
2022/06/20 01:04:23;;;;;;;1150.45;999.90;;;21.20;75.90;;;;;;5062556;28;20030;-83
2022/06/20 01:06:54;;;;;;;1152.85;999.90;;;21.20;75.50;;;;;;5061111;28;20028;-82
2022/06/20 01:09:25;;;;;;;1154.95;999.90;;;21.20;77.30;;;;;;5059770;28;20043;-82
2022/06/20 01:11:54;;;;;;;1149.72;999.90;;;21.30;76.60;;;;;;5058151;28;20103;-84
2022/06/20 01:14:22;;;;;;;1149.38;999.90;;;21.20;75.90;;;;;;5058523;28;20033;-82
2022/06/20 01:16:48;;;;;;;1162.03;999.90;;;21.30;74.20;;;;;;5040896;28;20112;-83
2022/06/20 01:19:39;;;;;;;1172.68;999.90;;;21.40;74.20;;;;;;5041680;28;20025;-83
2022/06/20 01:22:32;;;;;;;1178.07;999.90;;;21.50;73.00;;;;;;5051319;28;20072;-83
2022/06/20 01:25:18;;;;;;;1163.47;999.90;;;21.60;71.70;;;;;;5032870;28;20040;-86
2022/06/20 01:27:48;;;;;;;1162.55;999.90;;;21.60;71.90;;;;;;5053999;28;20029;-82
2022/06/20 01:30:13;;;;;;;1183.38;999.90;;;21.60;72.00;;;;;;5065470;28;20064;-82
2022/06/20 01:32:41;;;;;;;1178.13;999.90;;;21.60;73.00;;;;;;5063167;28;20110;-83
2022/06/20 01:35:11;;;;;;;1149.25;999.90;;;21.60;71.80;;;;;;5060564;28;20722;-83
2022/06/20 01:37:41;;;;;;;1174.10;999.90;;;21.60;71.90;;;;;;5060129;28;20082;-83
2022/06/20 01:40:11;;;;;;;1181.78;999.90;;;21.50;72.40;;;;;;5061164;28;20048;-82
2022/06/20 01:42:39;;;;;;;1180.68;999.90;;;21.50;72.20;;;;;;5058260;28;20033;-84
2022/06/20 01:48:09;;;;;;;1170.85;999.90;;;21.30;74.10;;;;;;5056138;28;20040;-82
2022/06/20 01:50:36;;;;;;;1160.18;999.90;;;21.10;75.40;;;;;;5037861;28;20041;-83
2022/06/20 01:53:04;;;;;;;1156.03;999.90;;;20.90;76.90;;;;;;5051686;28;20025;-82
2022/06/20 01:55:32;;;;;;;1175.72;999.90;;;20.90;77.80;;;;;;5050822;28;20029;-83
2022/06/20 01:58:13;;;;;;;1213.35;999.90;;;20.90;78.70;;;;;;5058242;28;20055;-82
2022/06/20 02:00:39;;;;;;;1167.63;999.90;;;20.90;77.70;;;;;;5078652;28;20036;-83
2022/06/20 02:03:13;;;;;;;1210.18;999.90;;;20.80;79.30;;;;;;5061002;28;20070;-82
2022/06/20 02:05:42;;;;;;;1179.07;999.90;;;20.70;80.50;;;;;;5059295;28;20025;-82
2022/06/20 02:08:09;;;;;;;1187.10;999.90;;;20.70;80.00;;;;;;5054277;28;20051;-83
2022/06/20 02:10:42;;;;;;;1192.22;999.90;;;20.50;81.70;;;;;;5057981;28;20041;-82
2022/06/20 02:13:09;;;;;;;1168.43;999.90;;;20.40;82.00;;;;;;5059503;28;20081;-82
2022/06/20 02:15:36;;;;;;;1186.47;999.90;;;20.20;85.30;;;;;;5072056;28;20028;-88
2022/06/20 02:18:05;;;;;;;1219.68;999.90;;;20.10;86.10;;;;;;5051642;28;20032;-83
2022/06/20 02:20:38;;;;;;;1173.90;999.90;;;20.00;85.40;;;;;;5049550;28;20116;-83
2022/06/20 02:23:05;;;;;;;1162.05;999.90;;;20.00;87.00;;;;;;5052945;28;20614;-82
2022/06/20 02:25:34;;;;;;;1213.32;999.90;;;19.90;87.00;;;;;;5050868;28;20029;-83
2022/06/20 02:28:06;;;;;;;1185.93;999.90;;;19.90;88.80;;;;;;5075125;28;20028;-82
2022/06/20 02:30:32;;;;;;;1156.47;999.90;;;19.90;89.00;;;;;;5062333;28;20042;-83
2022/06/20 02:33:22;;;;;;;1164.45;999.90;;;19.80;88.30;;;;;;5062464;28;20459;-83
2022/06/20 02:35:49;;;;;;;1196.85;999.90;;;19.70;90.80;;;;;;5058609;28;20024;-83
2022/06/20 02:38:15;;;;;;;1179.10;999.90;;;19.60;91.10;;;;;;5059303;28;20040;-83
2022/06/20 02:40:42;;;;;;;1188.15;999.90;;;19.40;91.50;;;;;;5057255;28;20511;-82
2022/06/20 02:43:21;;;;;;;1206.78;999.90;;;19.40;91.30;;;;;;5057458;28;20036;-82
2022/06/20 02:45:47;;;;;;;1184.45;999.90;;;19.40;91.50;;;;;;5056549;28;20039;-82
2022/06/20 02:48:15;;;;;;;1189.07;999.90;;;19.40;91.30;;;;;;5055530;28;20111;-82
2022/06/20 02:50:54;;;;;;;1302.00;999.90;;;19.40;91.60;;;;;;5051273;28;20028;-82
2022/06/20 02:53:27;;;;;;;1319.22;999.90;;;19.40;91.70;;;;;;5049323;28;20040;-82
2022/06/20 02:55:55;;;;;;;1199.20;999.90;;;19.50;91.00;;;;;;5051232;28;20090;-82
2022/06/20 02:58:28;;;;;;;1209.97;999.90;;;19.50;90.60;;;;;;5064549;28;20552;-82
2022/06/20 03:01:17;;;;;;;1266.88;999.90;;;19.50;90.70;;;;;;5057727;28;20581;-84
2022/06/20 03:03:50;;;;;;;1200.00;999.90;;;19.50;90.80;;;;;;5062034;28;20029;-83
2022/06/20 03:06:40;;;;;;;1208.05;999.90;;;19.50;91.90;;;;;;5052361;28;20078;-82
2022/06/20 03:09:06;;;;;;;1185.15;999.90;;;19.50;91.00;;;;;;5062110;28;20059;-82
2022/06/20 03:11:36;;;;;;;1173.47;999.90;;;19.50;91.90;;;;;;5058880;28;20488;-82
2022/06/20 03:14:05;;;;;;;1175.50;999.90;;;19.60;90.80;;;;;;5051869;28;20476;-85
2022/06/20 03:16:32;;;;;;;1221.82;999.90;;;19.60;89.50;;;;;;5054530;28;20083;-82
2022/06/20 03:18:59;;;;;;;1164.93;999.90;;;19.90;85.90;;;;;;5055888;28;20067;-82
2022/06/20 03:21:31;;;;;;;1178.93;999.90;;;19.90;87.40;;;;;;5032982;28;20048;-82
2022/06/20 03:23:57;;;;;;;1199.75;999.90;;;19.80;87.10;;;;;;5059801;28;20055;-82
2022/06/20 03:26:26;;;;;;;1211.88;999.90;;;19.80;88.30;;;;;;5050113;28;20051;-83
2022/06/20 03:28:53;;;;;;;1180.10;999.90;;;19.80;88.80;;;;;;5061434;28;20021;-82
2022/06/20 03:31:19;;;;;;;1246.05;999.90;;;19.80;88.40;;;;;;5056567;28;20033;-82
2022/06/20 03:33:46;;;;;;;1182.03;999.90;;;19.80;87.60;;;;;;5041138;28;20131;-82
2022/06/20 03:36:14;;;;;;;1198.45;999.90;;;19.80;86.90;;;;;;5057617;28;20029;-85
2022/06/20 03:38:43;;;;;;;1289.80;999.90;;;20.00;85.80;;;;;;5056175;28;20029;-82
2022/06/20 03:41:12;;;;;;;1428.38;999.90;;;20.10;84.80;;;;;;5060039;28;20555;-82
2022/06/20 03:43:40;;;;;;;1173.68;999.90;;;20.20;84.40;;;;;;5056035;28;20024;-82
2022/06/20 03:46:15;;;;;;;1256.47;999.90;;;20.10;85.40;;;;;;5038455;28;20029;-82
2022/06/20 03:48:50;;;;;;;1139.55;999.90;;;19.90;86.20;;;;;;5070137;28;20024;-82
2022/06/20 03:51:21;;;;;;;1200.38;999.90;;;19.90;86.40;;;;;;5053035;28;20035;-83
2022/06/20 03:54:23;;;;;;;1228.65;999.90;;;19.90;87.00;;;;;;5048344;28;20039;-83
2022/06/20 03:57:14;;;;;;;1169.93;999.90;;;19.90;87.30;;;;;;5043016;28;20519;-82
2022/06/20 03:59:55;;;;;;;1217.13;999.90;;;19.80;88.80;;;;;;5062461;28;20120;-82
2022/06/20 04:02:42;;;;;;;1192.03;999.90;;;19.70;88.60;;;;;;5051271;28;20039;-82
2022/06/20 04:05:17;;;;;;;1206.97;999.90;;;19.60;90.50;;;;;;5058217;28;20032;-83
2022/06/20 04:07:54;;;;;;;1186.30;999.90;;;19.60;89.10;;;;;;5058077;28;20776;-83
2022/06/20 04:13:38;;;;;;;1198.50;999.90;;;19.60;89.80;;;;;;5050828;28;20447;-83
2022/06/20 04:16:13;;;;;;;1170.70;999.90;;;19.70;90.50;;;;;;5050004;28;20041;-84
2022/06/20 04:19:13;;;;;;;1128.35;999.90;;;19.70;91.20;;;;;;5065228;28;20053;-83
2022/06/20 04:21:46;;;;;;;1143.47;999.90;;;19.80;89.60;;;;;;5048322;28;20071;-84
2022/06/20 04:24:37;;;;;;;1175.82;999.90;;;19.80;90.00;;;;;;5062183;28;20116;-83
2022/06/20 04:27:15;;;;;;;1212.65;999.90;;;19.90;89.90;;;;;;5055867;28;20652;-83
2022/06/20 04:30:03;;;;;;;1148.07;999.90;;;20.00;90.60;;;;;;5054398;28;20040;-83
2022/06/20 04:32:47;;;;;;;1144.28;999.90;;;20.20;91.30;;;;;;5049196;28;20056;-89
2022/06/20 04:35:18;;;;;;;1132.68;999.90;;;20.20;90.50;;;;;;5048888;28;20027;-85
2022/06/20 04:38:02;;;;;;;1146.35;999.90;;;20.40;85.90;;;;;;5030037;28;20024;-84
2022/06/20 04:40:35;;;;;;;1130.13;999.90;;;20.60;86.00;;;;;;5050613;28;20549;-82
2022/06/20 04:43:22;;;;;;;1140.30;999.90;;;20.60;84.80;;;;;;5041112;28;20033;-84
2022/06/20 04:46:19;;;;;;;1127.25;999.90;;;20.60;85.90;;;;;;5050304;28;20053;-81
2022/06/20 04:48:47;;;;;;;1143.53;999.90;;;20.60;85.90;;;;;;5047607;28;20032;-83
2022/06/20 04:51:17;;;;;;;1127.93;999.90;;;20.90;85.20;;;;;;5047035;28;20033;-82
2022/06/20 04:53:45;;;;;;;1127.35;999.90;;;20.90;85.00;;;;;;5047741;28;20037;-82
2022/06/20 04:56:14;;;;;;;1154.50;999.90;;;21.10;83.60;;;;;;5050205;28;20044;-82
2022/06/20 04:58:48;;;;;;;1148.07;999.90;;;21.10;81.70;;;;;;5052542;28;20029;-83
2022/06/20 05:01:15;;;;;;;1364.15;999.90;;;21.20;79.60;;;;;;5059062;28;20036;-85
2022/06/20 05:03:56;;;;;;;1138.40;999.90;;;21.40;75.90;;;;;;5058969;28;21076;-82
2022/06/20 05:06:28;;;;;;;1175.82;999.90;;;21.50;78.10;;;;;;5057104;28;20028;-83
2022/06/20 05:09:00;;;;;;;1166.32;999.90;;;21.80;74.30;;;;;;5054783;28;20093;-84
2022/06/20 05:11:50;;;;;;;1425.63;999.90;;;22.10;68.70;;;;;;5048408;28;20048;-84
2022/06/20 05:14:49;;;;;;;1340.88;924.13;;;22.30;67.20;;;;;;5056182;28;20120;-85
2022/06/20 05:17:23;;;;;;;1442.32;999.90;;;22.60;64.20;;;;;;5057511;28;20030;-86
2022/06/20 05:19:53;;;;;;;1250.75;999.90;;;22.70;61.60;;;;;;5052240;28;20300;-83
2022/06/20 05:22:23;;;;;;;;;;;22.80;61.80;;;;;;5051688;28;20458;-84
2022/06/20 05:24:52;;;;;;;1999.90;999.90;;;22.90;59.90;;;;;;5047436;28;20026;-82
2022/06/20 05:27:30;;;;;;;1999.90;999.90;;;23.00;59.00;;;;;;5055742;28;20087;-82
2022/06/20 05:30:00;;;;;;;1375.80;999.90;;;23.20;57.80;;;;;;5056412;28;20028;-82
2022/06/20 05:32:40;;;;;;;;;;;23.20;59.90;;;;;;5063294;28;20048;-81
2022/06/20 05:35:12;;;;;;;1358.10;999.90;;;23.30;56.90;;;;;;5059599;28;19944;-82
2022/06/20 05:37:57;;;;;;;1122.50;997.20;;;23.30;59.00;;;;;;5057864;28;20064;-82
2022/06/20 05:40:39;;;;;;;1149.00;999.90;;;23.40;59.40;;;;;;5057451;28;20064;-81
2022/06/20 05:43:20;;;;;;;1164.00;999.00;;;23.60;60.10;;;;;;5051548;28;20031;-81
2022/06/20 05:45:49;;;;;;;1092.60;987.58;;;23.60;58.40;;;;;;5056598;28;20017;-83
2022/06/20 05:48:15;;;;;;;1103.97;998.53;;;23.60;59.00;;;;;;5056242;28;20432;-82
2022/06/20 05:50:58;;;;;;;1084.05;982.13;;;23.70;58.30;;;;;;5052498;28;20170;-82
2022/06/20 05:53:33;;;;;;;1075.95;973.38;;;23.70;59.10;;;;;;5050865;28;20078;-83
2022/06/20 05:56:03;;;;;;;1077.50;978.90;;;23.70;58.80;;;;;;5062392;28;20021;-80
2022/06/20 05:58:32;;;;;;;1078.93;976.40;;;23.90;57.70;;;;;;5062160;28;20059;-81
2022/06/20 06:01:04;;;;;;;1088.30;988.77;;;24.20;57.00;;;;;;5061895;28;20342;-81
2022/06/20 06:03:54;;;;;;;1106.55;999.17;;;24.60;58.50;;;;;;5060700;28;20055;-82
2022/06/20 06:06:23;;;;;;;1084.32;980.25;;;24.60;59.10;;;;;;5055390;28;20071;-80
2022/06/20 06:08:56;;;;;;;1065.72;972.35;;;24.60;55.50;;;;;;5056550;28;20044;-82
2022/06/20 06:11:30;;;;;;;1082.55;982.35;;;24.70;56.10;;;;;;5060274;28;20471;-86
2022/06/20 06:14:05;;;;;;;1082.38;982.88;;;24.40;58.40;;;;;;5059320;28;20028;-79
2022/06/20 06:16:48;;;;;;;1103.20;998.13;;;24.10;57.70;;;;;;5052169;28;20029;-84
2022/06/20 06:19:24;;;;;;;1092.53;992.22;;;24.00;61.10;;;;;;5048740;28;20033;-80
2022/06/20 06:21:52;;;;;;;1086.65;987.42;;;23.90;59.90;;;;;;5051496;28;20033;-80
2022/06/20 06:24:23;;;;;;;1099.90;997.65;;;23.90;61.30;;;;;;5048789;28;20092;-81
2022/06/20 06:26:50;;;;;;;1100.60;994.35;;;24.20;63.50;;;;;;5058950;28;20123;-80
2022/06/20 06:29:43;;;;;;;1099.32;997.67;;;24.40;61.30;;;;;;5063805;28;20027;-79
2022/06/20 06:32:26;;;;;;;1109.30;999.88;;;24.80;65.00;;;;;;5058358;28;20072;-79
2022/06/20 06:35:07;;;;;;;1122.85;999.90;;;24.70;60.00;;;;;;5055501;28;20025;-80
2022/06/20 06:37:55;;;;;;;1113.97;999.90;;;25.00;58.60;;;;;;5073303;28;20025;-80
2022/06/20 06:40:36;;;;;;;1086.60;986.80;;;25.10;58.40;;;;;;5051739;28;20867;-88
2022/06/20 06:43:23;;;;;;;1109.47;999.25;;;24.90;59.50;;;;;;5053945;28;20116;-89
2022/06/20 06:45:53;;;;;;;1108.22;999.42;;;24.60;64.00;;;;;;5055652;28;20021;-88
2022/06/20 06:48:50;;;;;;;1118.05;999.90;;;24.60;62.40;;;;;;5057681;28;20027;-89
2022/06/20 06:51:52;;;;;;;1100.68;996.35;;;24.30;61.50;;;;;;5048031;28;20056;-88
2022/06/20 06:54:28;;;;;;;1113.60;999.90;;;24.30;64.00;;;;;;5049236;28;20021;-89
2022/06/20 06:56:58;;;;;;;1110.20;998.58;;;24.80;65.80;;;;;;5053650;28;20120;-88
2022/06/20 06:59:48;;;;;;;1113.30;999.90;;;25.10;60.80;;;;;;5061361;28;20035;-93
2022/06/20 07:02:21;;;;;;;1129.60;999.90;;;25.30;63.50;;;;;;5054205;28;20299;-88
2022/06/20 07:04:56;;;;;;;1102.72;994.85;;;25.00;60.30;;;;;;5058882;28;20024;-88
2022/06/20 07:07:43;;;;;;;1102.80;996.50;;;24.70;59.70;;;;;;5053390;28;20032;-89
2022/06/20 07:10:22;;;;;;;1117.05;998.65;;;24.70;57.80;;;;;;5055671;28;20174;-89
2022/06/20 07:12:51;;;;;;;1072.28;973.17;;;24.90;56.40;;;;;;5045543;28;20025;-89
2022/06/20 07:15:18;;;;;;;1110.30;999.90;;;25.10;59.70;;;;;;5051805;28;20515;-90
2022/06/20 07:17:52;;;;;;;1050.43;954.83;;;25.30;56.00;;;;;;5063530;28;20043;-79
2022/06/20 07:20:20;;;;;;;1009.42;926.55;;;25.50;57.20;;;;;;5052893;28;20028;-80
2022/06/20 07:22:48;;;;;;;956.75;877.50;;;25.30;56.10;;;;;;5054140;28;20036;-81
2022/06/20 07:25:27;;;;;;;1089.53;982.50;;;25.20;56.60;;;;;;5060044;28;20032;-81
2022/06/20 07:28:06;;;;;;;947.55;871.17;;;24.80;58.00;;;;;;5054327;28;20099;-81
2022/06/20 07:30:43;;;;;;;984.85;896.15;;;24.70;58.00;;;;;;5053365;28;20028;-81
2022/06/20 07:33:19;;;;;;;949.25;852.53;;;24.40;58.40;;;;;;5061528;28;20071;-81
2022/06/20 07:35:49;;;;;;;952.85;876.38;;;24.10;59.80;;;;;;5053734;28;20067;-82
2022/06/20 07:38:23;;;;;;;1186.40;999.90;;;23.90;61.30;;;;;;5054566;28;20037;-81
2022/06/20 07:40:56;;;;;;;1010.25;916.60;;;23.70;64.40;;;;;;5048024;28;20060;-80
2022/06/20 07:43:28;;;;;;;1041.07;944.33;;;22.60;91.10;;;;;;5052771;28;20074;-93
2022/06/20 07:45:55;;;;;;;956.53;868.47;;;19.70;99.90;;;;;;5048456;28;20515;-82
2022/06/20 07:48:33;;;;;;;913.35;835.60;;;18.80;99.90;;;;;;5062544;28;20027;-81
2022/06/20 07:51:09;;;;;;;887.30;812.28;;;18.20;99.90;;;;;;5058826;28;20035;-81
2022/06/20 07:53:47;;;;;;;879.95;808.95;;;18.50;99.90;;;;;;5049115;28;20033;-81
2022/06/20 07:56:26;;;;;;;880.03;811.35;;;18.70;99.90;;;;;;5061585;28;20060;-81
2022/06/20 07:58:57;;;;;;;850.60;785.05;;;19.00;99.90;;;;;;5057626;28;20021;-83
2022/06/20 08:01:39;;;;;;;853.10;789.15;;;19.10;99.90;;;;;;5056384;28;20040;-85
2022/06/20 08:04:10;;;;;;;824.83;760.60;;;19.20;99.90;;;;;;5058920;28;20111;-94
2022/06/20 08:06:39;;;;;;;806.17;746.58;;;19.20;99.90;;;;;;5055864;28;20044;-84
2022/06/20 08:09:15;;;;;;;749.65;696.72;;;19.20;99.90;;;;;;5057658;28;20056;-83
2022/06/20 08:12:09;;;;;;;760.45;705.58;;;19.50;99.90;;;;;;5051365;28;20035;-83
2022/06/20 08:14:52;;;;;;;738.63;686.20;;;19.60;99.90;;;;;;5051785;28;20021;-83
2022/06/20 08:17:18;;;;;;;735.08;684.03;;;19.70;99.90;;;;;;5050093;28;20078;-83
2022/06/20 08:19:45;;;;;;;710.47;661.50;;;20.00;99.90;;;;;;5051194;28;20021;-83
2022/06/20 08:22:24;;;;;;;708.97;661.25;;;20.20;99.90;;;;;;5033031;28;20048;-83
2022/06/20 08:24:57;;;;;;;688.03;641.15;;;20.40;99.90;;;;;;5055555;28;20020;-83
2022/06/20 08:27:33;;;;;;;656.00;612.03;;;20.50;99.90;;;;;;5061285;28;20552;-86
2022/06/20 08:30:09;;;;;;;642.15;598.67;;;20.60;99.90;;;;;;5054503;28;20017;-86
2022/06/20 08:33:12;;;;;;;721.65;665.30;;;20.90;99.90;;;;;;5055679;28;20123;-84
2022/06/20 08:36:03;;;;;;;705.95;653.95;;;20.90;99.90;;;;;;5061654;28;20217;-85
2022/06/20 08:38:44;;;;;;;688.15;638.60;;;21.20;99.90;;;;;;5060084;28;20024;-86
2022/06/20 08:41:22;;;;;;;677.15;626.28;;;21.40;99.90;;;;;;5058195;28;20102;-86
2022/06/20 08:44:06;;;;;;;772.35;710.17;;;21.40;99.90;;;;;;5052140;28;20028;-87
2022/06/20 08:47:01;;;;;;;755.85;695.97;;;21.30;99.90;;;;;;5053267;28;20484;-87
2022/06/20 08:49:47;;;;;;;862.75;790.45;;;22.00;99.90;;;;;;5059799;28;20032;-87
2022/06/20 08:52:36;;;;;;;963.47;880.00;;;22.00;99.90;;;;;;5058563;28;20039;-86
2022/06/20 08:55:31;;;;;;;885.38;814.30;;;21.80;99.90;;;;;;5063462;28;20555;-85
2022/06/20 08:58:21;;;;;;;960.08;881.92;;;22.50;99.90;;;;;;5065417;28;20040;-86
2022/06/20 09:01:18;;;;;;;990.13;907.45;;;22.70;92.40;;;;;;5074523;28;20503;-86
2022/06/20 09:04:12;;;;;;;943.40;864.15;;;22.50;91.10;;;;;;5070037;28;20040;-86
2022/06/20 09:07:13;;;;;;;963.40;879.97;;;22.90;98.80;;;;;;5063659;28;20039;-85
2022/06/20 09:09:54;;;;;;;940.28;861.28;;;22.80;99.90;;;;;;5052758;28;20059;-86
2022/06/20 09:12:51;;;;;;;1017.25;931.08;;;22.40;95.40;;;;;;5054423;28;20017;-86
2022/06/20 09:15:51;;;;;;;1018.03;929.40;;;22.60;86.20;;;;;;5050847;28;20507;-86
2022/06/20 09:18:20;;;;;;;;;;;23.30;93.60;;;;;;5064199;28;20039;-87
2022/06/20 09:21:06;;;;;;;835.35;751.55;;;23.50;80.10;;;;;;5062155;28;19920;-91
2022/06/20 09:23:45;;;;;;;857.08;788.28;;;23.20;71.50;;;;;;5062143;28;20252;-85
2022/06/20 09:26:46;;;;;;;938.13;860.42;;;23.30;65.50;;;;;;5057329;28;20029;-88
2022/06/20 09:29:34;;;;;;;859.88;794.20;;;23.30;86.90;;;;;;5064436;28;20056;-87
2022/06/20 09:32:12;;;;;;;890.97;798.35;;;23.00;68.50;;;;;;5046412;28;20086;-87
2022/06/20 09:35:03;;;;;;;952.22;864.88;;;23.20;62.00;;;;;;5058003;28;20346;-87
2022/06/20 09:37:57;;;;;;;864.47;796.92;;;23.10;64.20;;;;;;5054791;28;20029;-86
2022/06/20 09:40:44;;;;;;;880.03;809.40;;;23.60;77.40;;;;;;5054571;28;20028;-87
2022/06/20 09:43:18;;;;;;;875.90;791.67;;;23.20;64.90;;;;;;5058154;28;20051;-89
2022/06/20 09:45:55;;;;;;;799.25;738.50;;;23.10;61.20;;;;;;5056581;28;20078;-88
2022/06/20 09:48:32;;;;;;;885.22;815.08;;;23.00;60.00;;;;;;5049848;28;20480;-86
2022/06/20 09:51:14;;;;;;;862.22;798.05;;;23.30;61.20;;;;;;5052111;28;20033;-86
2022/06/20 09:54:13;;;;;;;824.10;763.38;;;23.10;59.60;;;;;;5052593;28;20025;-87
2022/06/20 09:56:52;;;;;;;921.35;844.58;;;23.30;60.80;;;;;;5064331;28;20043;-86
2022/06/20 09:59:20;;;;;;;897.07;825.57;;;24.00;64.20;;;;;;5055920;28;20032;-86
2022/06/20 10:01:48;;;;;;;794.13;734.75;;;23.90;59.00;;;;;;5062567;28;20048;-85
2022/06/20 10:04:31;;;;;;;906.17;833.45;;;24.20;59.20;;;;;;5075121;28;20032;-83
2022/06/20 10:07:35;;;;;;;867.45;799.83;;;24.60;72.00;;;;;;5052439;28;20040;-86
2022/06/20 10:10:14;;;;;;;889.42;818.42;;;24.90;52.90;;;;;;5050977;28;20041;-85
2022/06/20 10:12:44;;;;;;;876.70;805.47;;;26.30;55.20;;;;;;5048921;28;20233;-85
2022/06/20 10:15:22;;;;;;;937.92;837.10;;;26.40;51.50;;;;;;5049987;28;20037;-85
2022/06/20 10:18:18;;;;;;;796.50;736.05;;;26.50;46.30;;;;;;5052414;28;20024;-87
2022/06/20 10:20:59;;;;;;;893.28;822.15;;;26.80;49.20;;;;;;5068241;28;20170;-86
2022/06/20 10:24:04;;;;;;;879.83;815.05;;;27.40;45.00;;;;;;5049222;28;20016;-86
2022/06/20 10:26:47;;;;;;;990.28;904.35;;;27.80;46.10;;;;;;5058350;28;20025;-85
2022/06/20 10:29:22;;;;;;;979.13;895.22;;;28.50;58.90;;;;;;5056989;28;20024;-86
2022/06/20 10:32:13;;;;;;;972.92;888.97;;;28.50;45.20;;;;;;5061058;28;20123;-91
2022/06/20 10:34:44;;;;;;;913.85;821.67;;;28.60;42.50;;;;;;5076140;28;20075;-90
2022/06/20 10:37:23;;;;;;;876.17;808.70;;;28.90;41.20;;;;;;5055428;28;20079;-91
2022/06/20 10:39:59;;;;;;;843.53;778.83;;;29.00;45.50;;;;;;5055215;28;20343;-91
2022/06/20 10:42:30;;;;;;;812.90;753.75;;;29.00;43.40;;;;;;5053845;28;20023;-91
2022/06/20 10:45:07;;;;;;;798.53;742.42;;;28.90;42.20;;;;;;5052771;28;20032;-90
2022/06/20 10:48:09;;;;;;;810.45;751.88;;;29.40;40.20;;;;;;5063054;28;20017;-90
2022/06/20 10:50:52;;;;;;;837.72;774.65;;;29.00;39.00;;;;;;5045813;28;20035;-90
2022/06/20 10:53:38;;;;;;;799.75;740.15;;;28.90;40.40;;;;;;5046769;28;20036;-91
2022/06/20 10:56:17;;;;;;;831.55;772.42;;;29.30;40.80;;;;;;5078701;28;20032;-86
2022/06/20 10:59:23;;;;;;;807.10;746.17;;;29.60;42.20;;;;;;5047128;28;20045;-86
2022/06/20 11:02:04;;;;;;;838.38;754.65;;;30.10;36.10;;;;;;5054029;28;20047;-84
2022/06/20 11:04:36;;;;;;;888.08;821.20;;;29.80;37.10;;;;;;5044718;28;20025;-84
2022/06/20 11:07:14;;;;;;;784.10;728.05;;;30.40;38.70;;;;;;5048217;28;20060;-85
2022/06/20 11:10:03;;;;;;;808.25;749.45;;;30.40;34.80;;;;;;5047409;28;20098;-84
2022/06/20 11:12:50;;;;;;;852.08;782.58;;;31.10;32.60;;;;;;5048189;28;20484;-85
2022/06/20 11:15:25;;;;;;;781.22;724.42;;;31.40;30.80;;;;;;5047972;28;20021;-85
2022/06/20 11:19:01;;;;;;;684.45;638.03;;;31.30;31.80;;;;;;5049915;28;20025;-85
2022/06/20 11:21:35;;;;;;;645.92;605.22;;;30.90;31.70;;;;;;4968590;28;20205;-84
2022/06/20 11:24:39;;;;;;;767.72;707.60;;;31.90;32.30;;;;;;4982981;28;20033;-86
2022/06/20 11:27:26;;;;;;;709.20;662.90;;;31.40;31.50;;;;;;5041479;28;20114;-85
2022/06/20 11:30:23;;;;;;;708.33;660.15;;;31.90;33.90;;;;;;5057113;28;20025;-85
2022/06/20 11:32:59;;;;;;;734.58;683.05;;;31.20;32.90;;;;;;5047608;28;20040;-87
2022/06/20 11:35:33;;;;;;;675.83;628.63;;;32.00;29.40;;;;;;5051554;28;20029;-84
2022/06/20 11:38:25;;;;;;;627.03;585.58;;;31.60;27.90;;;;;;5050451;28;20032;-84
2022/06/20 11:40:57;;;;;;;757.38;701.67;;;31.40;30.50;;;;;;5063494;28;20123;-84
2022/06/20 11:43:35;;;;;;;695.50;648.22;;;32.50;29.00;;;;;;5051927;28;20033;-84
2022/06/20 11:46:22;;;;;;;631.38;592.03;;;33.20;29.40;;;;;;5052306;28;20051;-85
2022/06/20 11:49:04;;;;;;;696.08;651.60;;;33.20;29.50;;;;;;5049943;28;20029;-84
2022/06/20 11:51:59;;;;;;;755.97;701.42;;;34.20;26.70;;;;;;5041854;28;20040;-85
2022/06/20 11:54:36;;;;;;;733.08;679.88;;;34.50;27.30;;;;;;5059469;28;20032;-85
2022/06/20 11:57:36;;;;;;;706.13;658.22;;;35.20;26.10;;;;;;5056513;28;20085;-84
2022/06/20 12:00:20;;;;;;;701.47;654.25;;;33.40;27.10;;;;;;5054226;28;20812;-85
2022/06/20 12:02:52;;;;;;;703.20;646.95;;;33.00;30.20;;;;;;5068501;28;20484;-85
2022/06/20 12:05:28;;;;;;;683.35;637.80;;;32.00;28.70;;;;;;5054526;28;20025;-84
2022/06/20 12:08:15;;;;;;;720.13;670.83;;;32.90;30.30;;;;;;5047876;28;20036;-85
2022/06/20 12:11:17;;;;;;;746.58;694.05;;;32.40;29.50;;;;;;5051864;28;20056;-85
2022/06/20 12:14:19;;;;;;;660.05;614.80;;;33.40;28.40;;;;;;5047742;28;20029;-85
2022/06/20 12:16:55;;;;;;;749.42;691.03;;;33.00;25.30;;;;;;5053777;28;20041;-87
2022/06/20 12:25:21;;;;;;;687.53;641.42;;;34.90;24.60;;;;;;5066845;28;20063;-85
2022/06/20 12:27:47;;;;;;;773.10;716.22;;;35.50;25.70;;;;;;5057955;28;20037;-86
2022/06/20 12:30:17;;;;;;;720.78;670.38;;;35.30;24.00;;;;;;5064811;28;20044;-86
2022/06/20 12:32:46;;;;;;;765.08;708.85;;;34.60;26.70;;;;;;5052420;28;20124;-83
2022/06/20 12:35:38;;;;;;;898.58;826.03;;;35.10;24.30;;;;;;5060018;28;20026;-83
2022/06/20 12:38:19;;;;;;;768.80;711.97;;;33.80;27.00;;;;;;5054817;28;20044;-83
2022/06/20 12:40:51;;;;;;;757.97;696.53;;;33.00;24.50;;;;;;5058942;28;20088;-84
2022/06/20 12:43:27;;;;;;;711.47;660.85;;;32.40;27.10;;;;;;5057510;28;20025;-86
2022/06/20 12:46:25;;;;;;;686.85;643.00;;;31.70;28.70;;;;;;5055914;28;20126;-82
2022/06/20 12:48:58;;;;;;;656.20;613.83;;;31.80;33.40;;;;;;5061076;28;20029;-82
2022/06/20 12:52:01;;;;;;;668.85;622.03;;;31.00;30.50;;;;;;5057891;28;20033;-83
2022/06/20 12:55:01;;;;;;;711.33;655.08;;;30.70;29.20;;;;;;5070584;28;20039;-83
2022/06/20 12:57:49;;;;;;;514.85;483.67;;;31.00;30.00;;;;;;5070943;28;20052;-82
2022/06/20 13:00:29;;;;;;;591.50;550.17;;;31.10;30.80;;;;;;5057909;28;20559;-83
2022/06/20 13:03:26;;;;;;;656.65;610.45;;;30.30;31.90;;;;;;5052114;28;20040;-83
2022/06/20 13:06:28;;;;;;;625.58;582.97;;;29.90;29.90;;;;;;5051807;28;20025;-85
2022/06/20 13:09:08;;;;;;;668.17;623.13;;;29.10;30.60;;;;;;5051675;28;20021;-86